Time;durP1;ratioP1;P1;durP2;ratioP2;P2;SDS_P1;SDS_P2;PMS_P1;PMS_P2;Temp;Humidity;BMP_temperature;BMP_pressure;BME280_temperature;BME280_humidity;BME280_pressure;Samples;Min_cycle;Max_cycle;Signal;HPM_P1;HPM_P2
2021/04/27 00:00:06;;;;;;;;;;;;;;;-1.46;72.97;99858.81;5034388;28;19982;-51
2021/04/27 00:02:52;;;;;;;;;;;;;;;-1.43;72.13;99860.56;5034474;28;19931;-51
2021/04/27 00:05:18;;;;;;;;;;;;;;;-1.38;71.72;99853.00;5034785;28;20008;-51
2021/04/27 00:07:43;;;;;;;;;;;;;;;-1.57;73.74;99852.53;5034477;28;19982;-51
2021/04/27 00:10:10;;;;;;;;;;;;;;;-1.62;73.92;99859.28;5034618;28;19932;-51
2021/04/27 00:12:36;;;;;;;;;;;;;;;-1.49;72.85;99855.31;5034554;28;19925;-51
2021/04/27 00:15:01;;;;;;;;;;;;;;;-1.53;72.36;99853.47;5034578;28;19982;-51
2021/04/27 00:17:27;;;;;;;;;;;;;;;-1.46;71.21;99852.81;5034173;28;20227;-51
2021/04/27 00:19:53;;;;;;;;;;;;;;;-1.44;70.66;99852.00;5034228;28;19932;-51
2021/04/27 00:22:18;;;;;;;;;;;;;;;-1.42;70.16;99846.91;5034445;28;19932;-51
2021/04/27 00:24:44;;;;;;;;;;;;;;;-1.43;69.95;99845.16;5034417;28;19931;-51
2021/04/27 00:27:09;;;;;;;;;;;;;;;-1.54;71.29;99834.63;5034048;28;20319;-51
2021/04/27 00:29:35;;;;;;;;;;;;;;;-1.59;72.29;99843.94;5033467;28;19925;-51
2021/04/27 00:32:01;;;;;;;;;;;;;;;-1.63;72.56;99838.69;5033423;28;19921;-51
2021/04/27 00:34:26;;;;;;;;;;;;;;;-1.59;70.93;99843.06;5033065;28;19995;-51
2021/04/27 00:36:52;;;;;;;;;;;;;;;-1.57;69.86;99838.84;5033542;28;19921;-51
2021/04/27 00:39:17;;;;;;;;;;;;;;;-1.60;69.26;99836.19;5032698;28;20241;-50
2021/04/27 00:41:43;;;;;;;;;;;;;;;-1.64;69.35;99835.25;5033812;28;20349;-51
2021/04/27 00:44:08;;;;;;;;;;;;;;;-1.65;69.93;99831.81;5034143;28;19921;-50
2021/04/27 00:46:34;;;;;;;;;;;;;;;-1.67;70.42;99833.47;5034004;28;19947;-50
2021/04/27 00:49:00;;;;;;;;;;;;;;;-1.83;73.54;99835.63;5033737;28;19924;-50
2021/04/27 00:51:25;;;;;;;;;;;;;;;-1.95;74.56;99839.63;5033212;28;19925;-50
2021/04/27 00:53:51;;;;;;;;;;;;;;;-1.81;72.61;99832.28;5034005;28;19921;-50
2021/04/27 00:56:18;;;;;;;;;;;;;;;-1.75;71.64;99826.44;5033766;28;19921;-50
2021/04/27 00:58:44;;;;;;;;;;;;;;;-1.75;71.16;99829.84;5033592;28;19921;-51
2021/04/27 01:01:11;;;;;;;;;;;;;;;-1.78;71.02;99822.06;5033035;28;19948;-51
2021/04/27 01:03:37;;;;;;;;;;;;;;;-1.87;72.32;99826.97;5033491;28;19921;-51
2021/04/27 01:06:03;;;;;;;;;;;;;;;-2.02;73.81;99829.16;5032972;28;19921;-50
2021/04/27 01:08:32;;;;;;;;;;;;;;;-2.12;74.22;99817.78;5032952;28;19921;-50
2021/04/27 01:11:24;;;;;;;;;;;;;;;-2.04;73.45;99815.44;5033731;28;19921;-50
2021/04/27 01:13:59;;;;;;;;;;;;;;;-2.17;73.62;99820.25;5041108;28;20327;-50
2021/04/27 01:16:25;;;;;;;;;;;;;;;-2.30;75.40;99822.44;5033892;28;19925;-50
2021/04/27 01:18:51;;;;;;;;;;;;;;;-2.17;74.99;99816.81;5032687;28;20045;-51
2021/04/27 01:21:17;;;;;;;;;;;;;;;-2.12;73.90;99818.63;5033313;28;19921;-50
2021/04/27 01:23:43;;;;;;;;;;;;;;;-2.09;73.06;99828.13;5033172;28;19981;-50
2021/04/27 01:26:12;;;;;;;;;;;;;;;-2.13;73.04;99821.19;5034126;28;19925;-50
2021/04/27 01:28:46;;;;;;;;;;;;;;;-2.27;73.87;99820.81;5033567;28;19932;-50
2021/04/27 01:31:12;;;;;;;;;;;;;;;-2.36;74.00;99815.44;5016015;28;20242;-50
2021/04/27 01:33:39;;;;;;;;;;;;;;;-2.46;75.20;99819.47;5032755;28;19921;-50
2021/04/27 01:36:04;;;;;;;;;;;;;;;-2.40;75.39;99811.06;5032393;28;20276;-50
2021/04/27 01:38:38;;;;;;;;;;;;;;;-2.30;74.88;99812.19;5032264;28;19921;-50
2021/04/27 01:41:04;;;;;;;;;;;;;;;-2.38;74.69;99811.97;5033381;28;19921;-50
2021/04/27 01:43:30;;;;;;;;;;;;;;;-2.35;74.35;99812.91;5016031;28;19951;-50
2021/04/27 01:45:58;;;;;;;;;;;;;;;-2.53;76.05;99809.88;5032179;28;19921;-50
2021/04/27 01:48:23;;;;;;;;;;;;;;;-2.38;75.68;99809.38;5032539;28;19921;-50
2021/04/27 01:50:49;;;;;;;;;;;;;;;-2.46;75.87;99811.75;5019326;28;19932;-52
2021/04/27 01:53:47;;;;;;;;;;;;;;;-2.47;75.26;99807.47;5059670;28;19925;-52
2021/04/27 01:56:13;;;;;;;;;;;;;;;-2.48;75.73;99805.72;5035850;28;20303;-52
2021/04/27 01:58:38;;;;;;;;;;;;;;;-2.49;74.88;99803.13;5019337;28;19932;-52
2021/04/27 02:01:04;;;;;;;;;;;;;;;-2.47;74.65;99804.00;5036738;28;20326;-52
2021/04/27 02:03:30;;;;;;;;;;;;;;;-2.42;74.06;99800.75;5035719;28;19928;-52
2021/04/27 02:06:15;;;;;;;;;;;;;;;-2.41;73.62;99802.47;5035503;28;19947;-52
2021/04/27 02:08:45;;;;;;;;;;;;;;;-2.46;73.81;99798.94;5036517;28;20314;-52
2021/04/27 02:11:10;;;;;;;;;;;;;;;-2.40;72.82;99801.66;5036168;28;20338;-52
2021/04/27 02:13:37;;;;;;;;;;;;;;;-2.44;72.98;99801.53;5035590;28;19956;-52
2021/04/27 02:16:05;;;;;;;;;;;;;;;-2.54;73.79;99800.41;5035510;28;19925;-52
2021/04/27 02:18:46;;;;;;;;;;;;;;;-2.69;75.59;99797.44;5035421;28;19921;-52
2021/04/27 02:21:13;;;;;;;;;;;;;;;-2.66;75.07;99800.97;5035326;28;19921;-52
2021/04/27 02:23:58;;;;;;;;;;;;;;;-2.59;74.32;99794.31;5036157;28;20310;-52
2021/04/27 02:26:28;;;;;;;;;;;;;;;-2.55;73.59;99802.94;5035914;28;19921;-52
2021/04/27 02:29:00;;;;;;;;;;;;;;;-2.60;73.39;99800.22;5035341;28;19921;-52
2021/04/27 02:31:26;;;;;;;;;;;;;;;-2.56;73.06;99802.09;5018907;28;19977;-52
2021/04/27 02:33:53;;;;;;;;;;;;;;;-2.54;72.49;99797.84;5018781;28;19932;-52
2021/04/27 02:36:19;;;;;;;;;;;;;;;-2.54;72.17;99799.53;5035245;28;20235;-52
2021/04/27 02:38:54;;;;;;;;;;;;;;;-2.55;72.18;99801.25;5035172;28;19920;-52
2021/04/27 02:41:21;;;;;;;;;;;;;;;-2.60;72.00;99795.09;5035154;28;20232;-52
2021/04/27 02:43:46;;;;;;;;;;;;;;;-2.70;72.71;99796.53;5035723;28;19973;-52
2021/04/27 02:46:13;;;;;;;;;;;;;;;-2.93;74.52;99802.72;5035058;28;19921;-52
2021/04/27 02:48:48;;;;;;;;;;;;;;;-2.94;74.51;99803.56;5035604;28;19921;-52
2021/04/27 02:51:19;;;;;;;;;;;;;;;-2.90;74.39;99795.13;5034623;28;20284;-52
2021/04/27 02:53:55;;;;;;;;;;;;;;;-2.80;73.58;99798.81;5035009;28;19952;-52
2021/04/27 02:56:21;;;;;;;;;;;;;;;-2.86;73.09;99800.41;5034605;28;19921;-52
2021/04/27 02:58:49;;;;;;;;;;;;;;;-2.88;73.57;99809.72;5035665;28;19974;-52
2021/04/27 03:01:15;;;;;;;;;;;;;;;-2.83;72.87;99797.03;5033501;28;19921;-52
2021/04/27 03:03:41;;;;;;;;;;;;;;;-2.88;73.16;99804.59;5018208;28;19921;-52
2021/04/27 03:06:07;;;;;;;;;;;;;;;-2.88;73.50;99812.28;5034737;28;19921;-52
2021/04/27 03:08:37;;;;;;;;;;;;;;;-2.89;73.30;99809.69;5034676;28;20319;-52
2021/04/27 03:11:04;;;;;;;;;;;;;;;-2.85;72.83;99803.84;5035036;28;19928;-52
2021/04/27 03:13:34;;;;;;;;;;;;;;;-2.86;72.26;99805.53;5034672;28;20247;-52
2021/04/27 03:16:00;;;;;;;;;;;;;;;-2.86;71.98;99813.22;5035243;28;19921;-52
2021/04/27 03:18:26;;;;;;;;;;;;;;;-3.01;74.35;99805.06;5035450;28;19990;-52
2021/04/27 03:20:52;;;;;;;;;;;;;;;-3.07;75.39;99808.31;5034232;28;20238;-52
2021/04/27 03:23:24;;;;;;;;;;;;;;;-3.10;76.29;99813.34;5035430;28;19932;-52
2021/04/27 03:25:51;;;;;;;;;;;;;;;-3.01;75.77;99809.34;5035005;28;19921;-52
2021/04/27 03:28:22;;;;;;;;;;;;;;;-3.16;76.73;99794.38;5034456;28;19932;-52
2021/04/27 03:30:55;;;;;;;;;;;;;;;-3.13;77.39;99799.59;5034470;28;19925;-52
2021/04/27 03:33:21;;;;;;;;;;;;;;;-3.14;77.24;99800.41;5034366;28;20375;-52
2021/04/27 03:35:50;;;;;;;;;;;;;;;-3.14;77.96;99802.97;5035159;28;19925;-52
2021/04/27 03:38:16;;;;;;;;;;;;;;;-3.05;77.17;99800.69;5033898;28;20238;-52
2021/04/27 03:40:42;;;;;;;;;;;;;;;-3.10;77.22;99797.13;5035135;28;19925;-52
2021/04/27 03:43:09;;;;;;;;;;;;;;;-3.16;77.58;99802.06;5034211;28;19931;-52
2021/04/27 03:45:42;;;;;;;;;;;;;;;-3.10;77.55;99807.38;5034208;28;19921;-52
2021/04/27 03:48:09;;;;;;;;;;;;;;;-3.03;76.99;99799.03;5034119;28;19994;-52
2021/04/27 03:50:36;;;;;;;;;;;;;;;-3.07;76.97;99802.34;5033605;28;19925;-52
2021/04/27 03:53:25;;;;;;;;;;;;;;;-3.02;77.20;99797.31;5034052;28;19925;-52
2021/04/27 03:55:51;;;;;;;;;;;;;;;-3.10;78.84;99802.25;5034561;28;19966;-51
2021/04/27 03:58:17;;;;;;;;;;;;;;;-3.14;79.31;99800.41;5033891;28;19932;-52
2021/04/27 04:00:43;;;;;;;;;;;;;;;-2.98;78.22;99802.59;5033645;28;19921;-52
2021/04/27 04:03:16;;;;;;;;;;;;;;;-2.91;77.86;99803.66;5033920;28;19925;-52
2021/04/27 04:05:42;;;;;;;;;;;;;;;-2.90;78.57;99808.81;5033606;28;19921;-51
2021/04/27 04:08:19;;;;;;;;;;;;;;;-2.86;78.72;99799.50;5034194;28;20038;-52
2021/04/27 04:10:46;;;;;;;;;;;;;;;-2.84;79.12;99811.53;5034329;28;20412;-52
2021/04/27 04:13:11;;;;;;;;;;;;;;;-2.75;79.02;99808.38;5034603;28;19920;-53
2021/04/27 04:15:37;;;;;;;;;;;;;;;-2.71;79.40;99810.22;5033387;28;20238;-52
2021/04/27 04:18:03;;;;;;;;;;;;;;;-2.69;80.29;99807.69;5033901;28;19928;-51
2021/04/27 04:20:29;;;;;;;;;;;;;;;-2.63;80.63;99813.00;5034146;28;19927;-50
2021/04/27 04:23:15;;;;;;;;;;;;;;;-2.48;80.79;99815.09;5033380;28;19928;-50
2021/04/27 04:25:41;;;;;;;;;;;;;;;-2.25;80.53;99818.28;5033549;28;20020;-50
2021/04/27 04:28:06;;;;;;;;;;;;;;;-1.90;80.41;99817.50;5034346;28;19921;-50
2021/04/27 04:30:32;;;;;;;;;;;;;;;-1.44;79.75;99818.59;5034228;28;20327;-50
2021/04/27 04:33:16;;;;;;;;;;;;;;;-1.02;78.76;99816.97;5033984;28;20342;-50
2021/04/27 04:36:17;;;;;;;;;;;;;;;-0.72;77.60;99820.16;5034582;28;19928;-50
2021/04/27 04:39:01;;;;;;;;;;;;;;;-0.43;77.25;99819.88;5034075;28;20314;-51
2021/04/27 04:41:47;;;;;;;;;;;;;;;0.00;76.56;99825.84;5033901;28;19928;-50
2021/04/27 04:44:33;;;;;;;;;;;;;;;0.84;75.12;99818.56;5064973;28;19928;-50
2021/04/27 04:47:16;;;;;;;;;;;;;;;1.48;72.63;99819.44;5034125;28;19978;-51
2021/04/27 04:50:01;;;;;;;;;;;;;;;2.10;71.49;99823.53;5033767;28;19932;-51
2021/04/27 04:52:44;;;;;;;;;;;;;;;2.98;69.19;99812.97;4994787;28;19929;-51
2021/04/27 04:55:13;;;;;;;;;;;;;;;3.90;66.92;99818.53;4994639;28;19933;-51
2021/04/27 04:57:54;;;;;;;;;;;;;;;4.80;63.82;99817.69;4994389;28;19922;-51
2021/04/27 05:00:30;;;;;;;;;;;;;;;5.57;60.88;99817.44;4994353;28;19943;-51
2021/04/27 05:03:14;;;;;;;;;;;;;;;6.03;56.59;99817.22;4994304;28;20331;-52
2021/04/27 05:05:59;;;;;;;;;;;;;;;7.02;55.55;99807.72;4994530;28;19932;-52
2021/04/27 05:08:50;;;;;;;;;;;;;;;7.96;53.22;99821.31;4994580;28;19921;-52
2021/04/27 05:11:34;;;;;;;;;;;;;;;8.62;51.96;99811.63;4994170;28;19953;-52
2021/04/27 05:14:20;;;;;;;;;;;;;;;8.82;49.29;99821.72;4994194;28;19928;-52
2021/04/27 05:16:45;;;;;;;;;;;;;;;9.33;49.13;99822.50;4994072;28;19930;-52
2021/04/27 05:19:11;;;;;;;;;;;;;;;9.50;47.84;99823.94;4977326;28;19921;-52
2021/04/27 05:21:38;;;;;;;;;;;;;;;9.59;46.48;99826.34;4993192;28;19933;-52
2021/04/27 05:24:05;;;;;;;;;;;;;;;9.77;45.17;99833.78;4994221;28;20358;-52
2021/04/27 05:26:30;;;;;;;;;;;;;;;10.12;45.33;99834.78;4997803;28;19922;-52
2021/04/27 05:28:56;;;;;;;;;;;;;;;8.97;45.85;99828.41;4996896;28;19926;-52
2021/04/27 05:31:22;;;;;;;;;;;;;;;9.78;45.11;99837.25;4997425;28;20347;-52
2021/04/27 05:33:47;;;;;;;;;;;;;;;9.89;45.52;99835.28;4997380;28;19928;-52
2021/04/27 05:36:13;;;;;;;;;;;;;;;10.04;45.94;99836.69;4997663;28;19933;-52
2021/04/27 05:38:39;;;;;;;;;;;;;;;10.63;43.82;99847.59;4997265;28;19925;-52
2021/04/27 05:41:04;;;;;;;;;;;;;;;11.15;42.87;99835.75;4997719;28;20027;-52
2021/04/27 05:43:30;;;;;;;;;;;;;;;11.51;43.57;99833.00;4996387;28;19926;-52
2021/04/27 05:45:55;;;;;;;;;;;;;;;11.23;42.01;99830.28;4997504;28;19979;-52
2021/04/27 05:48:21;;;;;;;;;;;;;;;11.13;42.49;99834.06;4997187;28;19928;-52
2021/04/27 05:50:46;;;;;;;;;;;;;;;11.29;41.78;99835.38;5004575;28;19932;-52
2021/04/27 05:53:12;;;;;;;;;;;;;;;11.39;40.81;99843.84;5036437;28;19921;-52
2021/04/27 05:55:40;;;;;;;;;;;;;;;11.54;41.69;99839.94;5036500;28;19932;-53
2021/04/27 05:58:06;;;;;;;;;;;;;;;11.88;41.05;99845.09;5036269;28;19925;-52
2021/04/27 06:00:32;;;;;;;;;;;;;;;12.11;39.27;99847.00;5036380;28;19928;-52
2021/04/27 06:02:58;;;;;;;;;;;;;;;11.96;40.26;99839.59;5036241;28;19921;-53
2021/04/27 06:05:23;;;;;;;;;;;;;;;12.11;39.79;99849.63;5036567;28;19932;-52
2021/04/27 06:07:49;;;;;;;;;;;;;;;12.00;40.20;99857.00;5036251;28;19921;-52
2021/04/27 06:10:14;;;;;;;;;;;;;;;12.42;39.76;99857.44;5036232;28;19920;-53
2021/04/27 06:12:40;;;;;;;;;;;;;;;12.35;38.45;99848.03;5036452;28;19925;-53
2021/04/27 06:15:06;;;;;;;;;;;;;;;11.89;39.53;99857.28;5036787;28;20331;-53
2021/04/27 06:17:33;;;;;;;;;;;;;;;12.15;38.54;99854.78;5035334;28;19982;-53
2021/04/27 06:19:59;;;;;;;;;;;;;;;12.34;39.36;99854.19;5035405;28;19931;-53
2021/04/27 06:22:24;;;;;;;;;;;;;;;12.42;38.38;99846.94;5035951;28;19921;-53
2021/04/27 06:24:50;;;;;;;;;;;;;;;13.18;38.44;99853.16;5036276;28;19932;-53
2021/04/27 06:27:16;;;;;;;;;;;;;;;13.55;37.40;99858.88;5035898;28;19933;-52
2021/04/27 06:29:41;;;;;;;;;;;;;;;14.05;36.13;99855.25;5036155;28;19921;-52
2021/04/27 06:32:07;;;;;;;;;;;;;;;13.70;36.90;99851.31;5036467;28;19925;-53
2021/04/27 06:34:32;;;;;;;;;;;;;;;13.78;35.26;99854.53;5036054;28;19921;-52
2021/04/27 06:36:59;;;;;;;;;;;;;;;14.08;35.33;99851.63;5036182;28;20275;-52
2021/04/27 06:39:24;;;;;;;;;;;;;;;14.08;34.14;99852.50;5036001;28;19921;-52
2021/04/27 06:41:50;;;;;;;;;;;;;;;13.56;35.45;99850.03;5036010;28;19977;-53
2021/04/27 06:44:15;;;;;;;;;;;;;;;14.16;35.37;99853.03;5035694;28;20243;-53
2021/04/27 06:46:41;;;;;;;;;;;;;;;14.07;33.93;99855.16;5035978;28;19921;-53
2021/04/27 06:49:06;;;;;;;;;;;;;;;13.53;34.91;99855.41;5035878;28;19921;-52
2021/04/27 06:51:32;;;;;;;;;;;;;;;14.15;34.60;99855.75;5035436;28;20319;-52
2021/04/27 06:53:58;;;;;;;;;;;;;;;14.46;34.02;99855.38;5034765;28;19921;-52
2021/04/27 06:56:24;;;;;;;;;;;;;;;14.58;33.91;99861.97;5035476;28;19925;-53
2021/04/27 06:58:50;;;;;;;;;;;;;;;14.14;34.16;99854.88;5035696;28;20016;-52
2021/04/27 07:01:15;;;;;;;;;;;;;;;13.91;33.69;99852.25;5035729;28;19994;-52
2021/04/27 07:03:47;;;;;;;;;;;;;;;14.35;33.28;99854.97;5035722;28;19921;-53
2021/04/27 07:06:13;;;;;;;;;;;;;;;14.05;33.28;99851.75;5035701;28;19921;-53
2021/04/27 07:08:38;;;;;;;;;;;;;;;14.65;33.02;99851.09;5035334;28;19928;-52
2021/04/27 07:11:05;;;;;;;;;;;;;;;15.08;32.46;99845.81;5035561;28;19921;-53
2021/04/27 07:13:30;;;;;;;;;;;;;;;15.18;31.64;99836.59;5035244;28;20008;-53
2021/04/27 07:15:56;;;;;;;;;;;;;;;14.85;32.26;99847.66;5035627;28;19935;-53
2021/04/27 07:18:21;;;;;;;;;;;;;;;15.16;30.24;99851.63;5035161;28;20346;-53
2021/04/27 07:20:47;;;;;;;;;;;;;;;14.46;31.38;99850.09;5035429;28;19921;-52
2021/04/27 07:23:12;;;;;;;;;;;;;;;14.35;30.12;99854.97;5035371;28;19952;-53
2021/04/27 07:25:38;;;;;;;;;;;;;;;14.67;29.97;99849.28;5036143;28;19921;-52
2021/04/27 07:28:04;;;;;;;;;;;;;;;15.12;28.96;99844.78;5034684;28;20235;-53
2021/04/27 07:30:30;;;;;;;;;;;;;;;15.49;29.59;99844.00;5035237;28;19921;-53
2021/04/27 07:32:56;;;;;;;;;;;;;;;15.35;28.42;99841.97;5035210;28;19921;-53
2021/04/27 07:35:21;;;;;;;;;;;;;;;15.69;29.61;99845.78;5034853;28;20012;-53
2021/04/27 07:37:47;;;;;;;;;;;;;;;16.05;28.97;99842.34;5035192;28;19981;-52
2021/04/27 07:40:12;;;;;;;;;;;;;;;15.75;27.96;99840.22;5035547;28;20341;-52
2021/04/27 07:42:38;;;;;;;;;;;;;;;15.72;27.98;99845.63;5035038;28;19921;-53
2021/04/27 07:45:04;;;;;;;;;;;;;;;16.13;28.26;99853.44;5035100;28;19932;-53
2021/04/27 07:47:30;;;;;;;;;;;;;;;16.45;27.56;99845.75;5033474;28;19921;-52
2021/04/27 07:49:56;;;;;;;;;;;;;;;16.75;27.82;99838.97;5034678;28;19925;-52
2021/04/27 07:52:21;;;;;;;;;;;;;;;16.31;27.60;99847.28;5034535;28;19950;-52
2021/04/27 07:54:47;;;;;;;;;;;;;;;16.22;27.78;99842.44;5034876;28;19956;-53
2021/04/27 07:57:13;;;;;;;;;;;;;;;16.58;28.01;99853.00;5033838;28;19932;-52
2021/04/27 07:59:38;;;;;;;;;;;;;;;16.25;28.84;99849.34;5033594;28;19948;-53
2021/04/27 08:02:04;;;;;;;;;;;;;;;16.89;27.26;99842.72;5034800;28;19946;-52
2021/04/27 08:04:29;;;;;;;;;;;;;;;17.02;26.54;99841.16;5035028;28;19925;-53
2021/04/27 08:06:55;;;;;;;;;;;;;;;16.45;26.41;99851.91;5034804;28;19920;-53
2021/04/27 08:09:21;;;;;;;;;;;;;;;16.67;26.92;99846.41;5034406;28;19921;-52
2021/04/27 08:11:46;;;;;;;;;;;;;;;16.64;27.00;99845.69;5033807;28;19986;-53
2021/04/27 08:14:13;;;;;;;;;;;;;;;16.04;26.61;99846.78;5032492;28;19921;-52
2021/04/27 08:16:39;;;;;;;;;;;;;;;15.40;26.67;99845.28;5032742;28;19921;-52
2021/04/27 08:19:04;;;;;;;;;;;;;;;16.01;27.53;99843.44;5032957;28;19978;-53
2021/04/27 08:21:30;;;;;;;;;;;;;;;15.38;26.84;99846.28;5032853;28;20364;-52
2021/04/27 08:23:56;;;;;;;;;;;;;;;15.87;26.93;99846.72;5031697;28;19925;-52
2021/04/27 08:26:21;;;;;;;;;;;;;;;15.34;27.41;99853.47;5032632;28;20342;-52
2021/04/27 08:28:48;;;;;;;;;;;;;;;15.04;25.83;99849.50;5032595;28;19949;-53
2021/04/27 08:31:14;;;;;;;;;;;;;;;13.69;26.07;99855.72;5032972;28;20318;-53
2021/04/27 08:33:40;;;;;;;;;;;;;;;14.37;26.49;99850.50;5033961;28;19936;-53
2021/04/27 08:36:05;;;;;;;;;;;;;;;14.52;27.68;99841.97;5033421;28;19920;-53
2021/04/27 08:38:31;;;;;;;;;;;;;;;13.81;27.39;99846.47;5034002;28;20319;-53
2021/04/27 08:40:58;;;;;;;;;;;;;;;13.67;27.76;99846.16;5034189;28;19928;-53
2021/04/27 08:43:23;;;;;;;;;;;;;;;14.36;28.33;99846.13;5033262;28;19921;-53
2021/04/27 08:45:49;;;;;;;;;;;;;;;14.58;28.62;99851.44;5033907;28;20307;-54
2021/04/27 08:48:15;;;;;;;;;;;;;;;14.05;28.12;99849.97;5033974;28;19931;-53
2021/04/27 08:50:40;;;;;;;;;;;;;;;14.01;28.34;99853.66;5033500;28;19937;-53
2021/04/27 08:53:06;;;;;;;;;;;;;;;14.51;28.90;99847.34;5032850;28;19936;-54
2021/04/27 08:55:32;;;;;;;;;;;;;;;14.53;28.66;99846.34;5034307;28;19951;-56
2021/04/27 08:57:57;;;;;;;;;;;;;;;14.79;28.34;99850.56;5033232;28;19931;-54
2021/04/27 09:00:23;;;;;;;;;;;;;;;14.57;28.80;99845.31;5016178;28;20235;-54
2021/04/27 09:02:55;;;;;;;;;;;;;;;14.53;28.16;99862.16;5032207;28;19933;-53
2021/04/27 09:05:22;;;;;;;;;;;;;;;14.03;28.77;99854.44;5031784;28;19978;-54
2021/04/27 09:07:48;;;;;;;;;;;;;;;13.00;30.46;99849.38;5032048;28;19925;-53
2021/04/27 09:10:15;;;;;;;;;;;;;;;13.39;30.15;99851.56;5032334;28;19925;-53
2021/04/27 09:12:45;;;;;;;;;;;;;;;13.81;29.10;99851.75;5031677;28;19925;-52
2021/04/27 09:15:11;;;;;;;;;;;;;;;13.31;28.32;99843.94;5032267;28;19921;-53
2021/04/27 09:17:36;;;;;;;;;;;;;;;13.48;29.63;99853.84;5032628;28;19921;-53
2021/04/27 09:20:02;;;;;;;;;;;;;;;13.82;28.01;99837.69;5033592;28;19932;-52
2021/04/27 09:22:28;;;;;;;;;;;;;;;14.03;27.70;99839.47;5033775;28;19921;-52
2021/04/27 09:24:55;;;;;;;;;;;;;;;13.80;29.23;99828.97;5033588;28;19921;-53
2021/04/27 09:27:24;;;;;;;;;;;;;;;14.09;28.85;99834.91;5034116;28;19921;-52
2021/04/27 09:29:49;;;;;;;;;;;;;;;14.16;27.90;99837.22;5033287;28;19921;-53
2021/04/27 09:32:28;;;;;;;;;;;;;;;13.85;28.75;99832.31;5033154;28;19952;-52
2021/04/27 09:34:53;;;;;;;;;;;;;;;13.85;27.12;99829.69;5033555;28;20325;-53
2021/04/27 09:37:19;;;;;;;;;;;;;;;13.95;27.95;99820.50;5033401;28;19921;-53
2021/04/27 09:39:47;;;;;;;;;;;;;;;14.15;27.77;99825.00;5033006;28;19948;-52
2021/04/27 09:42:14;;;;;;;;;;;;;;;13.71;26.94;99822.28;5033424;28;19921;-53
2021/04/27 09:44:43;;;;;;;;;;;;;;;14.01;27.03;99817.63;5033336;28;19953;-53
2021/04/27 09:47:10;;;;;;;;;;;;;;;14.36;27.05;99815.34;5033389;28;19929;-53
2021/04/27 09:49:36;;;;;;;;;;;;;;;14.32;25.74;99815.56;5033298;28;19952;-53
2021/04/27 09:52:06;;;;;;;;;;;;;;;14.13;25.89;99818.91;5032896;28;19973;-53
2021/04/27 09:54:31;;;;;;;;;;;;;;;13.75;26.26;99816.00;5033556;28;19929;-53
2021/04/27 09:56:57;;;;;;;;;;;;;;;13.87;27.39;99811.19;5032351;28;19931;-53
2021/04/27 09:59:30;;;;;;;;;;;;;;;14.13;26.55;99812.78;5033177;28;19921;-53
2021/04/27 10:01:56;;;;;;;;;;;;;;;14.21;26.81;99805.47;5033252;28;19925;-53
2021/04/27 10:04:22;;;;;;;;;;;;;;;13.44;26.69;99811.00;5033126;28;19932;-53
2021/04/27 10:06:48;;;;;;;;;;;;;;;13.75;28.06;99809.88;5032903;28;20250;-52
2021/04/27 10:09:14;;;;;;;;;;;;;;;13.79;26.70;99796.53;5032028;28;19932;-52
2021/04/27 10:11:39;;;;;;;;;;;;;;;14.12;27.53;99803.19;5036353;28;19925;-54
2021/04/27 10:14:06;;;;;;;;;;;;;;;14.22;25.85;99796.63;5036173;28;20368;-53
2021/04/27 10:16:32;;;;;;;;;;;;;;;14.10;27.56;99797.97;5036108;28;20231;-53
2021/04/27 10:18:57;;;;;;;;;;;;;;;14.32;26.58;99790.06;5036267;28;19921;-53
2021/04/27 10:21:23;;;;;;;;;;;;;;;14.41;27.05;99794.97;5036022;28;19944;-53
2021/04/27 10:23:51;;;;;;;;;;;;;;;14.46;27.73;99782.47;5035459;28;19921;-53
2021/04/27 10:26:20;;;;;;;;;;;;;;;14.62;26.38;99781.84;5035424;28;19925;-53
2021/04/27 10:29:06;;;;;;;;;;;;;;;14.40;26.49;99781.88;5036195;28;19935;-53
2021/04/27 10:31:33;;;;;;;;;;;;;;;14.67;26.92;99774.59;5035916;28;20420;-53
2021/04/27 10:34:02;;;;;;;;;;;;;;;14.76;27.27;99771.59;5035875;28;20261;-53
2021/04/27 10:36:28;;;;;;;;;;;;;;;14.96;25.65;99771.56;5035774;28;19976;-53
2021/04/27 10:38:55;;;;;;;;;;;;;;;14.81;25.88;99761.69;5035997;28;19925;-53
2021/04/27 10:41:27;;;;;;;;;;;;;;;14.68;25.70;99760.50;5036041;28;19932;-53
2021/04/27 10:44:02;;;;;;;;;;;;;;;14.77;25.32;99754.00;5035796;28;19921;-53
2021/04/27 10:46:28;;;;;;;;;;;;;;;14.62;25.27;99756.34;5036022;28;19932;-53
2021/04/27 10:49:04;;;;;;;;;;;;;;;15.05;25.90;99751.88;5035651;28;19921;-53
2021/04/27 10:51:34;;;;;;;;;;;;;;;14.70;26.57;99745.50;5034875;28;20319;-53
2021/04/27 10:54:02;;;;;;;;;;;;;;;14.50;27.33;99748.94;5035802;28;19921;-53
2021/04/27 10:56:37;;;;;;;;;;;;;;;14.89;25.66;99750.81;5035752;28;19925;-53
2021/04/27 10:59:07;;;;;;;;;;;;;;;15.02;26.54;99738.81;5035737;28;19931;-54
2021/04/27 11:01:32;;;;;;;;;;;;;;;15.33;24.10;99740.91;5035461;28;19921;-53
2021/04/27 11:03:58;;;;;;;;;;;;;;;15.39;24.95;99742.41;5035703;28;19921;-53
2021/04/27 11:06:24;;;;;;;;;;;;;;;15.61;24.71;99737.00;5035677;28;19921;-53
2021/04/27 11:08:50;;;;;;;;;;;;;;;15.71;24.34;99730.41;5035612;28;20310;-53
2021/04/27 11:11:17;;;;;;;;;;;;;;;15.53;24.13;99733.84;5035621;28;20295;-53
2021/04/27 11:13:42;;;;;;;;;;;;;;;14.63;23.62;99731.72;5035781;28;19970;-53
2021/04/27 11:16:21;;;;;;;;;;;;;;;14.65;25.04;99729.84;5035500;28;19929;-53
2021/04/27 11:18:47;;;;;;;;;;;;;;;14.93;25.16;99728.66;5035108;28;19932;-54
2021/04/27 11:21:13;;;;;;;;;;;;;;;15.27;24.85;99727.13;5034722;28;19921;-53
2021/04/27 11:24:07;;;;;;;;;;;;;;;15.47;24.40;99718.31;5035226;28;20204;-53
2021/04/27 11:26:33;;;;;;;;;;;;;;;14.50;25.65;99714.69;5035347;28;19921;-53
2021/04/27 11:29:02;;;;;;;;;;;;;;;14.60;25.42;99715.19;5035325;28;19921;-53
2021/04/27 11:31:27;;;;;;;;;;;;;;;14.88;24.73;99710.44;5035318;27;19932;-54
2021/04/27 11:33:54;;;;;;;;;;;;;;;15.35;24.76;99703.91;5034046;28;19921;-53
2021/04/27 11:36:46;;;;;;;;;;;;;;;15.59;23.61;99704.53;5034955;28;20327;-53
2021/04/27 11:39:21;;;;;;;;;;;;;;;15.14;24.06;99703.97;5035616;28;19928;-53
2021/04/27 11:41:48;;;;;;;;;;;;;;;15.09;23.77;99702.47;5034023;28;19947;-53
2021/04/27 11:44:13;;;;;;;;;;;;;;;15.05;23.74;99698.25;5034801;28;19944;-53
2021/04/27 11:46:58;;;;;;;;;;;;;;;14.66;24.21;99694.69;5034791;28;20319;-53
2021/04/27 11:49:43;;;;;;;;;;;;;;;15.11;24.03;99695.31;5035020;28;19921;-53
2021/04/27 11:52:08;;;;;;;;;;;;;;;14.89;23.52;99690.19;5034498;28;19928;-53
2021/04/27 11:54:34;;;;;;;;;;;;;;;14.83;22.99;99688.66;5034931;28;19920;-53
2021/04/27 11:57:00;;;;;;;;;;;;;;;15.02;23.76;99674.66;5034488;28;20399;-53
2021/04/27 11:59:25;;;;;;;;;;;;;;;14.71;23.23;99678.66;5034707;28;19921;-53
2021/04/27 12:01:58;;;;;;;;;;;;;;;15.04;23.53;99680.69;5033950;28;19921;-53
2021/04/27 12:04:24;;;;;;;;;;;;;;;14.51;23.54;99681.31;5034781;28;19921;-53
2021/04/27 12:07:00;;;;;;;;;;;;;;;14.78;23.74;99680.09;5033879;28;20235;-53
2021/04/27 12:09:26;;;;;;;;;;;;;;;14.99;24.67;99672.16;5034784;28;19921;-53
2021/04/27 12:11:52;;;;;;;;;;;;;;;15.20;23.03;99665.88;5033798;28;19948;-53
2021/04/27 12:14:17;;;;;;;;;;;;;;;14.40;23.84;99661.53;5034898;28;19928;-53
2021/04/27 12:16:44;;;;;;;;;;;;;;;15.00;22.79;99658.91;5034559;28;19921;-53
2021/04/27 12:19:09;;;;;;;;;;;;;;;14.91;23.85;99660.16;5034215;28;19928;-53
2021/04/27 12:21:39;;;;;;;;;;;;;;;14.86;24.02;99661.31;5034200;28;19920;-53
2021/04/27 12:24:09;;;;;;;;;;;;;;;14.89;23.22;99651.47;5034409;28;19921;-53
2021/04/27 12:26:35;;;;;;;;;;;;;;;14.30;23.09;99652.31;5034198;28;19921;-53
2021/04/27 12:29:01;;;;;;;;;;;;;;;14.51;24.85;99647.91;5033248;28;20331;-53
2021/04/27 12:31:26;;;;;;;;;;;;;;;14.93;24.35;99644.28;5034318;28;19936;-53
2021/04/27 12:33:55;;;;;;;;;;;;;;;14.97;25.29;99640.56;5033855;28;20329;-53
2021/04/27 12:36:47;;;;;;;;;;;;;;;15.09;24.37;99645.28;5034296;28;19921;-53
2021/04/27 12:39:21;;;;;;;;;;;;;;;14.35;24.24;99652.94;5035357;28;19989;-54
2021/04/27 12:41:47;;;;;;;;;;;;;;;14.97;23.96;99640.56;5034078;28;20262;-55
2021/04/27 12:44:31;;;;;;;;;;;;;;;14.92;24.14;99642.59;5034147;28;19950;-53
2021/04/27 12:46:57;;;;;;;;;;;;;;;14.79;24.06;99641.44;5033802;28;20338;-53
2021/04/27 12:49:26;;;;;;;;;;;;;;;14.75;23.64;99639.81;5033865;28;19921;-53
2021/04/27 12:52:18;;;;;;;;;;;;;;;14.43;23.55;99637.69;5032782;28;19921;-53
2021/04/27 12:54:44;;;;;;;;;;;;;;;14.14;24.75;99636.28;5034495;28;20338;-53